Archival Weather

Rochelle Muni/Koritz Fld

Rochelle, Illinois (KRPJ)

Report from: Sunday, February 5, 2023 3:15 AM CST
Current time: Wednesday, May 29, 2024 4:21 AM CDT

Current weather – Weather history – Daily summaries
Weather forecast

Temperature1.0°C (33.8°F)
Wind chill-4.7°C (23.5°F)
Dew point-0.8°C (30.6°F)
Winds 14 kts (7.2 m/s, 16.1 mph) South-Southwest (210°)
Visibility10 mi. (16.1 km)
Clouds Sky clear
Altimeter29.84 in.Hg (1010 mB)
Relative humidity88 %
Density altitude-1,525 ft. (-465 m)
Remarks Fully automated report
Automated weather observing station with precipitation discriminator
Lightning detection system not operating
Flight conditions Visual Meteorological Conditions
Raw dataKRPJ 050915Z AUTO 21014KT 10SM CLR 01/M01 A2984 RMK AO2 T00101008 TSNO
An error has occurred. This application may no longer respond until reloaded. Reload 🗙